sensor_id;sensor_type;location;lat;lon;timestamp;temperature;humidity
11855;DHT22;5987;53.140;8.904;2023-04-15T00:01:07;7.40;99.90
11855;DHT22;5987;53.140;8.904;2023-04-15T00:04:12;7.40;99.90
11855;DHT22;5987;53.140;8.904;2023-04-15T00:07:17;7.50;99.90
11855;DHT22;5987;53.140;8.904;2023-04-15T00:10:20;7.50;99.90
11855;DHT22;5987;53.140;8.904;2023-04-15T00:13:25;7.50;99.90
11855;DHT22;5987;53.140;8.904;2023-04-15T00:16:29;7.40;99.90
11855;DHT22;5987;53.140;8.904;2023-04-15T00:19:33;7.30;99.90
11855;DHT22;5987;53.140;8.904;2023-04-15T00:22:36;7.30;99.90
11855;DHT22;5987;53.140;8.904;2023-04-15T00:25:40;7.30;99.90
11855;DHT22;5987;53.140;8.904;2023-04-15T00:28:45;7.30;99.90
11855;DHT22;5987;53.140;8.904;2023-04-15T00:31:48;7.40;99.90
11855;DHT22;5987;53.140;8.904;2023-04-15T00:34:52;7.30;99.90
11855;DHT22;5987;53.140;8.904;2023-04-15T00:37:55;7.40;99.90
11855;DHT22;5987;53.140;8.904;2023-04-15T00:40:59;7.40;99.90
11855;DHT22;5987;53.140;8.904;2023-04-15T00:44:05;7.40;99.90
11855;DHT22;5987;53.140;8.904;2023-04-15T00:47:09;7.40;99.90
11855;DHT22;5987;53.140;8.904;2023-04-15T00:50:14;7.40;99.90
11855;DHT22;5987;53.140;8.904;2023-04-15T00:53:17;7.40;99.90
11855;DHT22;5987;53.140;8.904;2023-04-15T00:56:22;7.40;99.90
11855;DHT22;5987;53.140;8.904;2023-04-15T00:59:28;7.40;99.90
11855;DHT22;5987;53.140;8.904;2023-04-15T01:02:33;7.40;99.90
11855;DHT22;5987;53.140;8.904;2023-04-15T01:05:38;7.40;99.90
11855;DHT22;5987;53.140;8.904;2023-04-15T01:08:42;7.30;99.90
11855;DHT22;5987;53.140;8.904;2023-04-15T01:11:46;7.30;99.90
11855;DHT22;5987;53.140;8.904;2023-04-15T01:14:52;7.30;99.90
11855;DHT22;5987;53.140;8.904;2023-04-15T01:17:56;7.30;99.90
11855;DHT22;5987;53.140;8.904;2023-04-15T01:21:02;7.30;99.90
11855;DHT22;5987;53.140;8.904;2023-04-15T01:24:08;7.40;99.90
11855;DHT22;5987;53.140;8.904;2023-04-15T01:27:14;7.30;99.90
11855;DHT22;5987;53.140;8.904;2023-04-15T01:30:18;7.30;99.90
11855;DHT22;5987;53.140;8.904;2023-04-15T01:33:22;7.30;99.90
11855;DHT22;5987;53.140;8.904;2023-04-15T01:36:26;7.20;99.90
11855;DHT22;5987;53.140;8.904;2023-04-15T01:39:30;7.20;99.90
11855;DHT22;5987;53.140;8.904;2023-04-15T01:42:36;7.30;99.90
11855;DHT22;5987;53.140;8.904;2023-04-15T01:45:39;7.40;99.90
11855;DHT22;5987;53.140;8.904;2023-04-15T01:48:43;7.40;99.90
11855;DHT22;5987;53.140;8.904;2023-04-15T01:51:47;7.40;99.90
11855;DHT22;5987;53.140;8.904;2023-04-15T01:54:51;7.40;99.90
11855;DHT22;5987;53.140;8.904;2023-04-15T01:57:56;7.40;99.90
11855;DHT22;5987;53.140;8.904;2023-04-15T02:00:59;7.40;99.90
11855;DHT22;5987;53.140;8.904;2023-04-15T02:04:04;7.40;99.90
11855;DHT22;5987;53.140;8.904;2023-04-15T02:07:08;7.40;99.90
11855;DHT22;5987;53.140;8.904;2023-04-15T02:10:11;7.40;99.90
11855;DHT22;5987;53.140;8.904;2023-04-15T02:13:18;7.50;99.90
11855;DHT22;5987;53.140;8.904;2023-04-15T02:16:22;7.50;99.90
11855;DHT22;5987;53.140;8.904;2023-04-15T02:19:25;7.40;99.90
11855;DHT22;5987;53.140;8.904;2023-04-15T02:22:29;7.40;99.90
11855;DHT22;5987;53.140;8.904;2023-04-15T02:25:32;7.40;99.90
11855;DHT22;5987;53.140;8.904;2023-04-15T02:28:37;7.40;99.90
11855;DHT22;5987;53.140;8.904;2023-04-15T02:31:41;7.40;99.90
11855;DHT22;5987;53.140;8.904;2023-04-15T02:34:45;7.40;99.90
11855;DHT22;5987;53.140;8.904;2023-04-15T02:37:49;7.40;99.90
11855;DHT22;5987;53.140;8.904;2023-04-15T02:40:53;7.40;99.90
11855;DHT22;5987;53.140;8.904;2023-04-15T02:43:58;7.40;99.90
11855;DHT22;5987;53.140;8.904;2023-04-15T02:47:02;7.40;99.90
11855;DHT22;5987;53.140;8.904;2023-04-15T02:50:09;7.40;99.90
11855;DHT22;5987;53.140;8.904;2023-04-15T02:53:14;7.40;99.90
11855;DHT22;5987;53.140;8.904;2023-04-15T02:56:18;7.40;99.90
11855;DHT22;5987;53.140;8.904;2023-04-15T02:59:25;7.40;99.90
11855;DHT22;5987;53.140;8.904;2023-04-15T03:02:32;7.40;99.90
11855;DHT22;5987;53.140;8.904;2023-04-15T03:05:37;7.40;99.90
11855;DHT22;5987;53.140;8.904;2023-04-15T03:08:41;7.50;99.90
11855;DHT22;5987;53.140;8.904;2023-04-15T03:11:44;7.40;99.90
11855;DHT22;5987;53.140;8.904;2023-04-15T03:14:49;7.40;99.90
11855;DHT22;5987;53.140;8.904;2023-04-15T03:17:53;7.40;99.90
11855;DHT22;5987;53.140;8.904;2023-04-15T03:20:56;7.40;99.90
11855;DHT22;5987;53.140;8.904;2023-04-15T03:24:00;7.50;99.90
11855;DHT22;5987;53.140;8.904;2023-04-15T03:27:03;7.50;99.90
11855;DHT22;5987;53.140;8.904;2023-04-15T03:30:11;7.50;99.90
11855;DHT22;5987;53.140;8.904;2023-04-15T03:33:15;7.50;99.90
11855;DHT22;5987;53.140;8.904;2023-04-15T03:36:19;7.50;99.90
11855;DHT22;5987;53.140;8.904;2023-04-15T03:39:22;7.40;99.90
11855;DHT22;5987;53.140;8.904;2023-04-15T03:42:26;7.50;99.90
11855;DHT22;5987;53.140;8.904;2023-04-15T03:45:31;7.50;99.90
11855;DHT22;5987;53.140;8.904;2023-04-15T03:48:35;7.50;99.90
11855;DHT22;5987;53.140;8.904;2023-04-15T03:51:38;7.50;99.90
11855;DHT22;5987;53.140;8.904;2023-04-15T03:54:42;7.50;99.90
11855;DHT22;5987;53.140;8.904;2023-04-15T03:57:45;7.50;99.90
11855;DHT22;5987;53.140;8.904;2023-04-15T04:00:50;7.50;99.90
11855;DHT22;5987;53.140;8.904;2023-04-15T04:03:54;7.50;99.90
11855;DHT22;5987;53.140;8.904;2023-04-15T04:06:58;7.60;99.90
11855;DHT22;5987;53.140;8.904;2023-04-15T04:10:02;7.50;99.90
11855;DHT22;5987;53.140;8.904;2023-04-15T04:13:05;7.60;99.90
11855;DHT22;5987;53.140;8.904;2023-04-15T04:16:10;7.60;99.90
11855;DHT22;5987;53.140;8.904;2023-04-15T04:19:14;7.60;99.90
11855;DHT22;5987;53.140;8.904;2023-04-15T04:22:21;7.60;99.90
11855;DHT22;5987;53.140;8.904;2023-04-15T04:25:25;8.20;99.90
11855;DHT22;5987;53.140;8.904;2023-04-15T04:28:29;7.70;99.90
11855;DHT22;5987;53.140;8.904;2023-04-15T04:31:34;7.60;99.90
11855;DHT22;5987;53.140;8.904;2023-04-15T04:34:38;7.60;99.90
11855;DHT22;5987;53.140;8.904;2023-04-15T04:37:41;7.50;99.90
11855;DHT22;5987;53.140;8.904;2023-04-15T04:40:45;7.60;99.90
11855;DHT22;5987;53.140;8.904;2023-04-15T04:43:48;7.60;99.90
11855;DHT22;5987;53.140;8.904;2023-04-15T04:46:53;7.70;99.90
11855;DHT22;5987;53.140;8.904;2023-04-15T04:49:57;7.70;99.90
11855;DHT22;5987;53.140;8.904;2023-04-15T04:53:00;7.60;99.90
11855;DHT22;5987;53.140;8.904;2023-04-15T04:56:05;7.70;99.90
11855;DHT22;5987;53.140;8.904;2023-04-15T04:59:08;7.70;99.90
11855;DHT22;5987;53.140;8.904;2023-04-15T05:02:13;7.70;99.90
11855;DHT22;5987;53.140;8.904;2023-04-15T05:05:17;7.70;99.90
11855;DHT22;5987;53.140;8.904;2023-04-15T05:08:21;7.70;99.90
11855;DHT22;5987;53.140;8.904;2023-04-15T05:11:24;7.70;99.90
11855;DHT22;5987;53.140;8.904;2023-04-15T05:14:29;7.70;99.90
11855;DHT22;5987;53.140;8.904;2023-04-15T05:17:34;7.70;99.90
11855;DHT22;5987;53.140;8.904;2023-04-15T05:20:38;7.70;99.90
11855;DHT22;5987;53.140;8.904;2023-04-15T05:23:41;7.70;99.90
11855;DHT22;5987;53.140;8.904;2023-04-15T05:26:45;7.70;99.90
11855;DHT22;5987;53.140;8.904;2023-04-15T05:29:49;7.80;99.90
11855;DHT22;5987;53.140;8.904;2023-04-15T05:32:54;7.80;99.90
11855;DHT22;5987;53.140;8.904;2023-04-15T05:35:58;7.80;99.90
11855;DHT22;5987;53.140;8.904;2023-04-15T05:39:01;7.80;99.90
11855;DHT22;5987;53.140;8.904;2023-04-15T05:42:05;7.80;99.90
11855;DHT22;5987;53.140;8.904;2023-04-15T05:45:09;7.80;99.90
11855;DHT22;5987;53.140;8.904;2023-04-15T05:48:15;7.80;99.90
11855;DHT22;5987;53.140;8.904;2023-04-15T05:51:18;7.80;99.90
11855;DHT22;5987;53.140;8.904;2023-04-15T05:54:22;7.80;99.90
11855;DHT22;5987;53.140;8.904;2023-04-15T05:57:25;7.80;99.90
11855;DHT22;5987;53.140;8.904;2023-04-15T06:00:29;7.80;99.90
11855;DHT22;5987;53.140;8.904;2023-04-15T06:03:34;7.90;99.90
11855;DHT22;5987;53.140;8.904;2023-04-15T06:06:38;7.90;99.90
11855;DHT22;5987;53.140;8.904;2023-04-15T06:09:42;7.90;99.90
11855;DHT22;5987;53.140;8.904;2023-04-15T06:12:45;8.00;99.90
11855;DHT22;5987;53.140;8.904;2023-04-15T06:15:49;8.00;99.90
11855;DHT22;5987;53.140;8.904;2023-04-15T06:18:54;7.90;99.90
11855;DHT22;5987;53.140;8.904;2023-04-15T06:21:58;8.00;99.90
11855;DHT22;5987;53.140;8.904;2023-04-15T06:25:01;8.00;99.90
11855;DHT22;5987;53.140;8.904;2023-04-15T06:28:06;8.00;99.90
11855;DHT22;5987;53.140;8.904;2023-04-15T06:31:09;8.10;99.90
11855;DHT22;5987;53.140;8.904;2023-04-15T06:34:15;8.10;99.90
11855;DHT22;5987;53.140;8.904;2023-04-15T06:37:19;8.10;99.90
11855;DHT22;5987;53.140;8.904;2023-04-15T06:40:23;8.10;99.90
11855;DHT22;5987;53.140;8.904;2023-04-15T06:43:27;8.10;99.90
11855;DHT22;5987;53.140;8.904;2023-04-15T06:46:30;8.10;99.90
11855;DHT22;5987;53.140;8.904;2023-04-15T06:49:35;8.20;99.90
11855;DHT22;5987;53.140;8.904;2023-04-15T06:52:39;8.20;99.90
11855;DHT22;5987;53.140;8.904;2023-04-15T06:55:43;8.20;99.90
11855;DHT22;5987;53.140;8.904;2023-04-15T06:58:46;8.20;99.90
11855;DHT22;5987;53.140;8.904;2023-04-15T07:01:50;8.30;99.90
11855;DHT22;5987;53.140;8.904;2023-04-15T07:04:55;8.30;99.90
11855;DHT22;5987;53.140;8.904;2023-04-15T07:07:58;8.30;99.90
11855;DHT22;5987;53.140;8.904;2023-04-15T07:11:02;8.30;99.90
11855;DHT22;5987;53.140;8.904;2023-04-15T07:14:06;8.30;99.90
11855;DHT22;5987;53.140;8.904;2023-04-15T07:17:10;8.30;99.90
11855;DHT22;5987;53.140;8.904;2023-04-15T07:20:15;8.30;99.90
11855;DHT22;5987;53.140;8.904;2023-04-15T07:23:19;8.30;99.90
11855;DHT22;5987;53.140;8.904;2023-04-15T07:26:23;8.30;99.90
11855;DHT22;5987;53.140;8.904;2023-04-15T07:29:26;8.30;99.90
11855;DHT22;5987;53.140;8.904;2023-04-15T07:32:30;8.40;99.90
11855;DHT22;5987;53.140;8.904;2023-04-15T07:35:35;8.40;99.90
11855;DHT22;5987;53.140;8.904;2023-04-15T07:38:39;8.40;99.90
11855;DHT22;5987;53.140;8.904;2023-04-15T07:41:42;8.40;99.90
11855;DHT22;5987;53.140;8.904;2023-04-15T07:44:46;8.40;99.90
11855;DHT22;5987;53.140;8.904;2023-04-15T07:47:49;8.40;99.90
11855;DHT22;5987;53.140;8.904;2023-04-15T07:50:54;8.50;99.90
11855;DHT22;5987;53.140;8.904;2023-04-15T07:53:58;8.50;99.90
11855;DHT22;5987;53.140;8.904;2023-04-15T07:57:02;8.50;99.90
11855;DHT22;5987;53.140;8.904;2023-04-15T08:00:07;8.50;99.90
11855;DHT22;5987;53.140;8.904;2023-04-15T08:03:10;8.60;99.90
11855;DHT22;5987;53.140;8.904;2023-04-15T08:06:16;8.60;99.90
11855;DHT22;5987;53.140;8.904;2023-04-15T08:09:19;8.60;99.90
11855;DHT22;5987;53.140;8.904;2023-04-15T08:12:23;8.50;99.90
11855;DHT22;5987;53.140;8.904;2023-04-15T08:15:43;8.60;99.90
11855;DHT22;5987;53.140;8.904;2023-04-15T08:18:48;8.60;99.90
11855;DHT22;5987;53.140;8.904;2023-04-15T08:21:54;8.60;99.90
11855;DHT22;5987;53.140;8.904;2023-04-15T08:24:58;8.60;99.90
11855;DHT22;5987;53.140;8.904;2023-04-15T08:28:03;8.70;99.90
11855;DHT22;5987;53.140;8.904;2023-04-15T08:31:08;8.70;99.90
11855;DHT22;5987;53.140;8.904;2023-04-15T08:34:12;8.80;99.90
11855;DHT22;5987;53.140;8.904;2023-04-15T08:37:18;8.80;99.90
11855;DHT22;5987;53.140;8.904;2023-04-15T08:40:22;8.80;99.90
11855;DHT22;5987;53.140;8.904;2023-04-15T08:43:33;8.80;99.90
11855;DHT22;5987;53.140;8.904;2023-04-15T08:46:40;8.80;99.90
11855;DHT22;5987;53.140;8.904;2023-04-15T08:49:45;8.90;99.90
11855;DHT22;5987;53.140;8.904;2023-04-15T08:52:58;8.80;99.90
11855;DHT22;5987;53.140;8.904;2023-04-15T08:56:04;8.90;99.90
11855;DHT22;5987;53.140;8.904;2023-04-15T08:59:11;8.90;99.90
11855;DHT22;5987;53.140;8.904;2023-04-15T09:02:15;8.90;99.90
11855;DHT22;5987;53.140;8.904;2023-04-15T09:05:19;8.90;99.90
11855;DHT22;5987;53.140;8.904;2023-04-15T09:08:25;8.90;99.90
11855;DHT22;5987;53.140;8.904;2023-04-15T09:11:29;8.90;99.90
11855;DHT22;5987;53.140;8.904;2023-04-15T09:14:34;9.00;99.90
11855;DHT22;5987;53.140;8.904;2023-04-15T09:17:41;8.90;99.90
11855;DHT22;5987;53.140;8.904;2023-04-15T09:20:46;9.00;99.90
11855;DHT22;5987;53.140;8.904;2023-04-15T09:23:58;9.10;99.90
11855;DHT22;5987;53.140;8.904;2023-04-15T09:27:04;9.10;99.90
11855;DHT22;5987;53.140;8.904;2023-04-15T09:30:09;9.10;99.90
11855;DHT22;5987;53.140;8.904;2023-04-15T09:33:14;9.10;99.90
11855;DHT22;5987;53.140;8.904;2023-04-15T09:36:18;9.20;99.90
11855;DHT22;5987;53.140;8.904;2023-04-15T09:39:23;9.20;99.90
11855;DHT22;5987;53.140;8.904;2023-04-15T09:42:26;9.20;99.90
11855;DHT22;5987;53.140;8.904;2023-04-15T09:45:32;9.20;99.90
11855;DHT22;5987;53.140;8.904;2023-04-15T09:48:37;9.30;99.90
11855;DHT22;5987;53.140;8.904;2023-04-15T09:51:40;9.30;99.90
11855;DHT22;5987;53.140;8.904;2023-04-15T09:55:05;9.40;99.90
11855;DHT22;5987;53.140;8.904;2023-04-15T09:58:17;9.40;99.90
11855;DHT22;5987;53.140;8.904;2023-04-15T10:01:26;9.40;99.90
11855;DHT22;5987;53.140;8.904;2023-04-15T10:04:34;9.40;99.90
11855;DHT22;5987;53.140;8.904;2023-04-15T10:07:39;9.40;99.90
11855;DHT22;5987;53.140;8.904;2023-04-15T10:10:46;9.40;99.90
11855;DHT22;5987;53.140;8.904;2023-04-15T10:13:53;9.40;99.90
11855;DHT22;5987;53.140;8.904;2023-04-15T10:17:10;9.40;99.90
11855;DHT22;5987;53.140;8.904;2023-04-15T10:20:16;9.40;99.90
11855;DHT22;5987;53.140;8.904;2023-04-15T10:23:22;9.40;99.90
11855;DHT22;5987;53.140;8.904;2023-04-15T10:26:30;9.50;99.90
11855;DHT22;5987;53.140;8.904;2023-04-15T10:29:34;9.60;99.90
11855;DHT22;5987;53.140;8.904;2023-04-15T10:32:38;9.60;99.90
11855;DHT22;5987;53.140;8.904;2023-04-15T10:35:43;9.50;99.90
11855;DHT22;5987;53.140;8.904;2023-04-15T10:38:49;9.50;99.90
11855;DHT22;5987;53.140;8.904;2023-04-15T10:42:07;9.50;99.90
11855;DHT22;5987;53.140;8.904;2023-04-15T10:45:15;9.50;99.90
11855;DHT22;5987;53.140;8.904;2023-04-15T10:48:23;9.50;99.90
11855;DHT22;5987;53.140;8.904;2023-04-15T10:51:30;9.40;99.90
11855;DHT22;5987;53.140;8.904;2023-04-15T10:54:34;9.50;99.90
11855;DHT22;5987;53.140;8.904;2023-04-15T10:57:45;9.60;99.90
11855;DHT22;5987;53.140;8.904;2023-04-15T11:01:01;9.60;99.90
11855;DHT22;5987;53.140;8.904;2023-04-15T11:04:05;9.60;99.90
11855;DHT22;5987;53.140;8.904;2023-04-15T11:07:09;9.60;99.90
11855;DHT22;5987;53.140;8.904;2023-04-15T11:13:56;9.70;99.90
11855;DHT22;5987;53.140;8.904;2023-04-15T11:17:00;9.70;99.90
11855;DHT22;5987;53.140;8.904;2023-04-15T11:20:14;9.70;99.90
11855;DHT22;5987;53.140;8.904;2023-04-15T11:23:19;9.80;99.90
11855;DHT22;5987;53.140;8.904;2023-04-15T11:26:30;9.80;99.90
11855;DHT22;5987;53.140;8.904;2023-04-15T11:29:36;9.80;99.90
11855;DHT22;5987;53.140;8.904;2023-04-15T11:32:41;9.80;99.90
11855;DHT22;5987;53.140;8.904;2023-04-15T11:35:46;9.80;99.90
11855;DHT22;5987;53.140;8.904;2023-04-15T11:38:50;9.80;99.90
11855;DHT22;5987;53.140;8.904;2023-04-15T11:41:53;9.80;99.90
11855;DHT22;5987;53.140;8.904;2023-04-15T11:45:07;9.70;99.90
11855;DHT22;5987;53.140;8.904;2023-04-15T11:48:12;9.90;99.90
11855;DHT22;5987;53.140;8.904;2023-04-15T11:51:16;9.90;99.90
11855;DHT22;5987;53.140;8.904;2023-04-15T11:54:22;10.00;99.90
11855;DHT22;5987;53.140;8.904;2023-04-15T11:57:30;10.00;99.90
11855;DHT22;5987;53.140;8.904;2023-04-15T12:00:36;10.00;99.90
11855;DHT22;5987;53.140;8.904;2023-04-15T12:03:42;10.10;99.90
11855;DHT22;5987;53.140;8.904;2023-04-15T12:06:48;10.00;99.90
11855;DHT22;5987;53.140;8.904;2023-04-15T12:09:54;10.10;99.90
11855;DHT22;5987;53.140;8.904;2023-04-15T12:12:58;10.10;99.90
11855;DHT22;5987;53.140;8.904;2023-04-15T12:16:04;10.10;99.90
11855;DHT22;5987;53.140;8.904;2023-04-15T12:19:11;10.20;99.90
11855;DHT22;5987;53.140;8.904;2023-04-15T12:22:16;10.20;99.90
11855;DHT22;5987;53.140;8.904;2023-04-15T12:25:33;10.30;99.90
11855;DHT22;5987;53.140;8.904;2023-04-15T12:28:39;10.40;99.90
11855;DHT22;5987;53.140;8.904;2023-04-15T12:31:49;10.50;99.90
11855;DHT22;5987;53.140;8.904;2023-04-15T12:34:54;10.60;99.90
11855;DHT22;5987;53.140;8.904;2023-04-15T12:37:57;10.50;99.90
11855;DHT22;5987;53.140;8.904;2023-04-15T12:41:01;10.50;99.90
11855;DHT22;5987;53.140;8.904;2023-04-15T12:47:46;10.70;99.90
11855;DHT22;5987;53.140;8.904;2023-04-15T12:50:49;10.80;99.90
11855;DHT22;5987;53.140;8.904;2023-04-15T12:53:53;10.80;99.90
11855;DHT22;5987;53.140;8.904;2023-04-15T12:57:00;10.90;99.90
11855;DHT22;5987;53.140;8.904;2023-04-15T13:00:10;11.00;99.90
11855;DHT22;5987;53.140;8.904;2023-04-15T13:03:16;11.10;99.90
11855;DHT22;5987;53.140;8.904;2023-04-15T13:06:19;11.10;99.90
11855;DHT22;5987;53.140;8.904;2023-04-15T13:09:25;11.20;99.90
11855;DHT22;5987;53.140;8.904;2023-04-15T13:12:28;11.40;99.90
11855;DHT22;5987;53.140;8.904;2023-04-15T13:15:33;11.70;99.90
11855;DHT22;5987;53.140;8.904;2023-04-15T13:18:38;11.90;99.90
11855;DHT22;5987;53.140;8.904;2023-04-15T13:21:42;12.20;99.90
11855;DHT22;5987;53.140;8.904;2023-04-15T13:24:45;12.30;99.90
11855;DHT22;5987;53.140;8.904;2023-04-15T13:27:49;12.40;99.90
11855;DHT22;5987;53.140;8.904;2023-04-15T13:30:53;12.60;99.90
11855;DHT22;5987;53.140;8.904;2023-04-15T13:33:58;12.70;99.90
11855;DHT22;5987;53.140;8.904;2023-04-15T13:37:05;12.70;99.90
11855;DHT22;5987;53.140;8.904;2023-04-15T13:40:10;12.80;99.90
11855;DHT22;5987;53.140;8.904;2023-04-15T13:43:14;12.70;99.90
11855;DHT22;5987;53.140;8.904;2023-04-15T13:46:18;12.80;99.90
11855;DHT22;5987;53.140;8.904;2023-04-15T13:49:23;12.80;99.90
11855;DHT22;5987;53.140;8.904;2023-04-15T13:52:27;12.90;99.90
11855;DHT22;5987;53.140;8.904;2023-04-15T13:55:31;12.90;99.90
11855;DHT22;5987;53.140;8.904;2023-04-15T13:58:36;13.00;99.90
11855;DHT22;5987;53.140;8.904;2023-04-15T14:01:40;13.00;99.90
11855;DHT22;5987;53.140;8.904;2023-04-15T14:04:46;13.00;99.90
11855;DHT22;5987;53.140;8.904;2023-04-15T14:07:49;12.90;99.90
11855;DHT22;5987;53.140;8.904;2023-04-15T14:10:53;13.00;99.90
11855;DHT22;5987;53.140;8.904;2023-04-15T14:13:56;13.30;99.90
11855;DHT22;5987;53.140;8.904;2023-04-15T14:17:00;13.40;99.90
11855;DHT22;5987;53.140;8.904;2023-04-15T14:20:08;13.30;99.90
11855;DHT22;5987;53.140;8.904;2023-04-15T14:23:12;13.50;99.90
11855;DHT22;5987;53.140;8.904;2023-04-15T14:26:15;13.70;99.90
11855;DHT22;5987;53.140;8.904;2023-04-15T14:29:19;13.80;99.90
11855;DHT22;5987;53.140;8.904;2023-04-15T14:32:24;13.70;99.90
11855;DHT22;5987;53.140;8.904;2023-04-15T14:35:29;13.70;99.90
11855;DHT22;5987;53.140;8.904;2023-04-15T14:38:33;13.70;99.90
11855;DHT22;5987;53.140;8.904;2023-04-15T14:41:39;13.70;99.90
11855;DHT22;5987;53.140;8.904;2023-04-15T14:44:43;13.80;99.90
11855;DHT22;5987;53.140;8.904;2023-04-15T14:47:46;13.60;99.90
11855;DHT22;5987;53.140;8.904;2023-04-15T14:50:51;13.50;99.90
11855;DHT22;5987;53.140;8.904;2023-04-15T14:53:55;13.40;99.90
11855;DHT22;5987;53.140;8.904;2023-04-15T14:56:59;13.40;99.90
11855;DHT22;5987;53.140;8.904;2023-04-15T15:00:04;13.50;99.90
11855;DHT22;5987;53.140;8.904;2023-04-15T15:03:10;13.60;99.90
11855;DHT22;5987;53.140;8.904;2023-04-15T15:06:16;13.70;99.90
11855;DHT22;5987;53.140;8.904;2023-04-15T15:09:19;13.70;99.90
11855;DHT22;5987;53.140;8.904;2023-04-15T15:12:24;13.80;99.90
11855;DHT22;5987;53.140;8.904;2023-04-15T15:15:28;13.80;99.90
11855;DHT22;5987;53.140;8.904;2023-04-15T15:18:32;14.00;99.90
11855;DHT22;5987;53.140;8.904;2023-04-15T15:21:37;14.10;99.90
11855;DHT22;5987;53.140;8.904;2023-04-15T15:24:40;14.20;99.90
11855;DHT22;5987;53.140;8.904;2023-04-15T15:27:44;14.30;99.90
11855;DHT22;5987;53.140;8.904;2023-04-15T15:30:48;14.40;99.90
11855;DHT22;5987;53.140;8.904;2023-04-15T15:33:51;14.50;99.90
11855;DHT22;5987;53.140;8.904;2023-04-15T15:36:56;14.50;99.90
11855;DHT22;5987;53.140;8.904;2023-04-15T15:40:00;14.40;99.90
11855;DHT22;5987;53.140;8.904;2023-04-15T15:43:06;14.30;99.90
11855;DHT22;5987;53.140;8.904;2023-04-15T15:46:09;14.30;99.90
11855;DHT22;5987;53.140;8.904;2023-04-15T15:49:13;14.30;99.90
11855;DHT22;5987;53.140;8.904;2023-04-15T15:52:18;14.40;99.90
11855;DHT22;5987;53.140;8.904;2023-04-15T15:55:22;14.40;99.90
11855;DHT22;5987;53.140;8.904;2023-04-15T15:58:28;14.40;99.90
11855;DHT22;5987;53.140;8.904;2023-04-15T16:01:32;14.30;99.90
11855;DHT22;5987;53.140;8.904;2023-04-15T16:04:35;14.30;99.90
11855;DHT22;5987;53.140;8.904;2023-04-15T16:07:41;14.20;99.90
11855;DHT22;5987;53.140;8.904;2023-04-15T16:10:45;14.20;99.90
11855;DHT22;5987;53.140;8.904;2023-04-15T16:13:48;14.10;99.90
11855;DHT22;5987;53.140;8.904;2023-04-15T16:16:52;14.20;99.90
11855;DHT22;5987;53.140;8.904;2023-04-15T16:19:56;14.20;99.90
11855;DHT22;5987;53.140;8.904;2023-04-15T16:23:08;14.20;99.90
11855;DHT22;5987;53.140;8.904;2023-04-15T16:26:14;14.10;99.90
11855;DHT22;5987;53.140;8.904;2023-04-15T16:29:18;14.10;99.90
11855;DHT22;5987;53.140;8.904;2023-04-15T16:32:35;14.00;99.90
11855;DHT22;5987;53.140;8.904;2023-04-15T16:35:39;14.00;99.90
11855;DHT22;5987;53.140;8.904;2023-04-15T16:38:44;13.90;99.90
11855;DHT22;5987;53.140;8.904;2023-04-15T16:41:49;13.80;99.90
11855;DHT22;5987;53.140;8.904;2023-04-15T16:44:53;13.80;99.90
11855;DHT22;5987;53.140;8.904;2023-04-15T16:47:57;13.80;99.90
11855;DHT22;5987;53.140;8.904;2023-04-15T16:51:01;13.60;99.90
11855;DHT22;5987;53.140;8.904;2023-04-15T16:54:06;13.60;99.90
11855;DHT22;5987;53.140;8.904;2023-04-15T16:57:11;13.60;99.90
11855;DHT22;5987;53.140;8.904;2023-04-15T17:00:14;13.60;99.90
11855;DHT22;5987;53.140;8.904;2023-04-15T17:03:18;13.50;99.90
11855;DHT22;5987;53.140;8.904;2023-04-15T17:06:22;13.50;99.90
11855;DHT22;5987;53.140;8.904;2023-04-15T17:09:29;13.50;99.90
11855;DHT22;5987;53.140;8.904;2023-04-15T17:12:33;13.40;99.90
11855;DHT22;5987;53.140;8.904;2023-04-15T17:15:47;13.40;99.90
11855;DHT22;5987;53.140;8.904;2023-04-15T17:18:52;13.40;99.90
11855;DHT22;5987;53.140;8.904;2023-04-15T17:21:56;13.40;99.90
11855;DHT22;5987;53.140;8.904;2023-04-15T17:25:02;13.30;99.90
11855;DHT22;5987;53.140;8.904;2023-04-15T17:28:06;13.30;99.90
11855;DHT22;5987;53.140;8.904;2023-04-15T17:31:10;13.30;99.90
11855;DHT22;5987;53.140;8.904;2023-04-15T17:34:21;13.40;99.90
11855;DHT22;5987;53.140;8.904;2023-04-15T17:37:24;13.30;99.90
11855;DHT22;5987;53.140;8.904;2023-04-15T17:40:30;13.30;99.90
11855;DHT22;5987;53.140;8.904;2023-04-15T17:43:34;13.30;99.90
11855;DHT22;5987;53.140;8.904;2023-04-15T17:46:37;13.20;99.90
11855;DHT22;5987;53.140;8.904;2023-04-15T17:49:42;13.20;99.90
11855;DHT22;5987;53.140;8.904;2023-04-15T17:52:45;13.20;99.90
11855;DHT22;5987;53.140;8.904;2023-04-15T17:55:50;13.10;99.90
11855;DHT22;5987;53.140;8.904;2023-04-15T17:58:55;13.10;99.90
11855;DHT22;5987;53.140;8.904;2023-04-15T18:02:00;13.00;99.90
11855;DHT22;5987;53.140;8.904;2023-04-15T18:05:04;12.90;99.90
11855;DHT22;5987;53.140;8.904;2023-04-15T18:08:08;12.90;99.90
11855;DHT22;5987;53.140;8.904;2023-04-15T18:11:13;12.90;99.90
11855;DHT22;5987;53.140;8.904;2023-04-15T18:14:18;12.80;99.90
11855;DHT22;5987;53.140;8.904;2023-04-15T18:17:35;12.80;99.90
11855;DHT22;5987;53.140;8.904;2023-04-15T18:20:39;12.80;99.90
11855;DHT22;5987;53.140;8.904;2023-04-15T18:23:43;12.70;99.90
11855;DHT22;5987;53.140;8.904;2023-04-15T18:26:48;12.80;99.90
11855;DHT22;5987;53.140;8.904;2023-04-15T18:29:52;12.70;99.90
11855;DHT22;5987;53.140;8.904;2023-04-15T18:32:55;12.70;99.90
11855;DHT22;5987;53.140;8.904;2023-04-15T18:35:59;12.70;99.90
11855;DHT22;5987;53.140;8.904;2023-04-15T18:39:03;12.70;99.90
11855;DHT22;5987;53.140;8.904;2023-04-15T18:42:09;12.70;99.90
11855;DHT22;5987;53.140;8.904;2023-04-15T18:45:13;12.60;99.90
11855;DHT22;5987;53.140;8.904;2023-04-15T18:48:17;12.60;99.90
11855;DHT22;5987;53.140;8.904;2023-04-15T18:51:21;12.60;99.90
11855;DHT22;5987;53.140;8.904;2023-04-15T18:54:24;12.60;99.90
11855;DHT22;5987;53.140;8.904;2023-04-15T18:57:30;12.60;99.90
11855;DHT22;5987;53.140;8.904;2023-04-15T19:00:37;12.50;99.90
11855;DHT22;5987;53.140;8.904;2023-04-15T19:03:42;12.50;99.90
11855;DHT22;5987;53.140;8.904;2023-04-15T19:06:47;12.40;99.90
11855;DHT22;5987;53.140;8.904;2023-04-15T19:09:52;12.50;99.90
11855;DHT22;5987;53.140;8.904;2023-04-15T19:12:58;12.50;99.90
11855;DHT22;5987;53.140;8.904;2023-04-15T19:16:02;12.40;99.90
11855;DHT22;5987;53.140;8.904;2023-04-15T19:19:10;12.40;99.90
11855;DHT22;5987;53.140;8.904;2023-04-15T19:22:16;12.40;99.90
11855;DHT22;5987;53.140;8.904;2023-04-15T19:25:26;12.40;99.90
11855;DHT22;5987;53.140;8.904;2023-04-15T19:28:31;12.40;99.90
11855;DHT22;5987;53.140;8.904;2023-04-15T19:31:36;12.40;99.90
11855;DHT22;5987;53.140;8.904;2023-04-15T19:34:39;12.40;99.90
11855;DHT22;5987;53.140;8.904;2023-04-15T19:37:43;12.30;99.90
11855;DHT22;5987;53.140;8.904;2023-04-15T19:40:47;12.30;99.90
11855;DHT22;5987;53.140;8.904;2023-04-15T19:43:52;12.20;99.90
11855;DHT22;5987;53.140;8.904;2023-04-15T19:46:56;12.20;99.90
11855;DHT22;5987;53.140;8.904;2023-04-15T19:50:00;12.20;99.90
11855;DHT22;5987;53.140;8.904;2023-04-15T19:53:03;12.10;99.90
11855;DHT22;5987;53.140;8.904;2023-04-15T19:56:07;12.10;99.90
11855;DHT22;5987;53.140;8.904;2023-04-15T19:59:12;12.10;99.90
11855;DHT22;5987;53.140;8.904;2023-04-15T20:02:15;12.10;99.90
11855;DHT22;5987;53.140;8.904;2023-04-15T20:05:19;12.10;99.90